sensor_id;sensor_type;location;lat;lon;timestamp;pressure;altitude;pressure_sealevel;temperature;humidity
31239;BME280;17871;31.584;74.450;2023-03-04T00:01:28;99254.13;;;21.14;67.69
31239;BME280;17871;31.584;74.450;2023-03-04T00:03:57;99250.78;;;21.06;68.25
31239;BME280;17871;31.584;74.450;2023-03-04T00:06:26;99253.47;;;21.01;68.35
31239;BME280;17871;31.584;74.450;2023-03-04T00:08:55;99250.94;;;21.00;68.29
31239;BME280;17871;31.584;74.450;2023-03-04T00:11:24;99257.78;;;21.04;68.41
31239;BME280;17871;31.584;74.450;2023-03-04T00:13:54;99250.69;;;21.12;68.40
31239;BME280;17871;31.584;74.450;2023-03-04T00:16:24;99249.03;;;21.09;67.97
31239;BME280;17871;31.584;74.450;2023-03-04T00:18:56;99247.16;;;21.16;67.90
31239;BME280;17871;31.584;74.450;2023-03-04T00:21:25;99251.75;;;21.02;67.18
31239;BME280;17871;31.584;74.450;2023-03-04T00:23:53;99252.59;;;21.02;67.41
31239;BME280;17871;31.584;74.450;2023-03-04T00:26:23;99254.41;;;20.99;67.39
31239;BME280;17871;31.584;74.450;2023-03-04T00:28:51;99251.78;;;21.00;67.71
31239;BME280;17871;31.584;74.450;2023-03-04T00:31:21;99258.00;;;20.92;68.34
31239;BME280;17871;31.584;74.450;2023-03-04T00:33:50;99254.59;;;20.90;68.17
31239;BME280;17871;31.584;74.450;2023-03-04T00:36:19;99264.22;;;20.85;68.38
31239;BME280;17871;31.584;74.450;2023-03-04T00:38:48;99266.00;;;20.84;68.41
31239;BME280;17871;31.584;74.450;2023-03-04T00:41:17;99266.00;;;20.84;68.12
31239;BME280;17871;31.584;74.450;2023-03-04T00:43:46;99266.81;;;20.85;68.01
31239;BME280;17871;31.584;74.450;2023-03-04T00:46:14;99269.41;;;20.85;68.17
31239;BME280;17871;31.584;74.450;2023-03-04T00:48:43;99265.25;;;20.78;67.79
31239;BME280;17871;31.584;74.450;2023-03-04T00:51:12;99267.69;;;20.85;67.51
31239;BME280;17871;31.584;74.450;2023-03-04T00:53:41;99273.75;;;20.86;67.85
31239;BME280;17871;31.584;74.450;2023-03-04T00:56:10;99273.72;;;20.87;67.76
31239;BME280;17871;31.584;74.450;2023-03-04T00:58:39;99277.13;;;20.91;67.84
31239;BME280;17871;31.584;74.450;2023-03-04T01:01:08;99273.66;;;20.89;67.93
31239;BME280;17871;31.584;74.450;2023-03-04T01:03:37;99275.47;;;20.87;67.95
31239;BME280;17871;31.584;74.450;2023-03-04T01:06:12;99276.38;;;20.84;68.32
31239;BME280;17871;31.584;74.450;2023-03-04T01:08:44;99281.66;;;20.80;68.58
31239;BME280;17871;31.584;74.450;2023-03-04T01:11:16;99279.25;;;20.70;69.46
31239;BME280;17871;31.584;74.450;2023-03-04T01:13:46;99282.78;;;20.66;69.24
31239;BME280;17871;31.584;74.450;2023-03-04T01:16:16;99287.16;;;20.64;69.03
31239;BME280;17871;31.584;74.450;2023-03-04T01:18:47;99287.25;;;20.58;69.50
31239;BME280;17871;31.584;74.450;2023-03-04T01:21:17;99278.72;;;20.52;69.87
31239;BME280;17871;31.584;74.450;2023-03-04T01:23:46;99297.81;;;20.49;70.10
31239;BME280;17871;31.584;74.450;2023-03-04T01:26:15;99304.00;;;20.42;70.54
31239;BME280;17871;31.584;74.450;2023-03-04T01:28:46;99309.19;;;20.44;70.50
31239;BME280;17871;31.584;74.450;2023-03-04T01:31:15;99316.22;;;20.37;70.64
31239;BME280;17871;31.584;74.450;2023-03-04T01:33:45;99316.28;;;20.34;71.09
31239;BME280;17871;31.584;74.450;2023-03-04T01:36:15;99316.34;;;20.31;71.24
31239;BME280;17871;31.584;74.450;2023-03-04T01:38:44;99326.78;;;20.25;71.54
31239;BME280;17871;31.584;74.450;2023-03-04T01:41:17;99322.28;;;20.36;71.76
31239;BME280;17871;31.584;74.450;2023-03-04T01:43:47;99333.13;;;20.07;72.86
31239;BME280;17871;31.584;74.450;2023-03-04T01:46:17;99335.69;;;20.09;72.94
31239;BME280;17871;31.584;74.450;2023-03-04T01:48:46;99338.41;;;20.01;73.59
31239;BME280;17871;31.584;74.450;2023-03-04T01:51:17;99339.13;;;20.11;73.46
31239;BME280;17871;31.584;74.450;2023-03-04T01:53:48;99343.88;;;20.40;72.55
31239;BME280;17871;31.584;74.450;2023-03-04T01:59:18;99356.91;;;20.37;73.06
31239;BME280;17871;31.584;74.450;2023-03-04T02:01:54;99360.66;;;20.17;73.87
31239;BME280;17871;31.584;74.450;2023-03-04T02:04:33;99367.53;;;20.20;73.84
31239;BME280;17871;31.584;74.450;2023-03-04T02:07:03;99360.03;;;20.02;73.90
31239;BME280;17871;31.584;74.450;2023-03-04T02:09:34;99379.91;;;20.03;74.19
31239;BME280;17871;31.584;74.450;2023-03-04T02:12:04;99377.50;;;19.91;74.88
31239;BME280;17871;31.584;74.450;2023-03-04T02:14:33;99383.44;;;19.99;74.85
31239;BME280;17871;31.584;74.450;2023-03-04T02:17:02;99392.94;;;19.98;75.02
31239;BME280;17871;31.584;74.450;2023-03-04T02:19:47;99393.53;;;20.15;74.92
31239;BME280;17871;31.584;74.450;2023-03-04T02:22:19;99398.00;;;20.06;74.79
31239;BME280;17871;31.584;74.450;2023-03-04T02:24:53;99401.31;;;20.17;74.95
31239;BME280;17871;31.584;74.450;2023-03-04T02:27:25;99395.34;;;20.10;75.07
31239;BME280;17871;31.584;74.450;2023-03-04T02:29:54;99397.91;;;20.15;74.40
31239;BME280;17871;31.584;74.450;2023-03-04T02:32:23;99401.25;;;20.20;74.72
31239;BME280;17871;31.584;74.450;2023-03-04T02:34:53;99401.16;;;20.26;74.29
31239;BME280;17871;31.584;74.450;2023-03-04T02:37:24;99413.25;;;20.30;74.37
31239;BME280;17871;31.584;74.450;2023-03-04T02:39:53;99415.84;;;20.32;73.83
31239;BME280;17871;31.584;74.450;2023-03-04T02:42:23;99426.94;;;20.41;73.18
31239;BME280;17871;31.584;74.450;2023-03-04T02:44:59;99430.84;;;20.66;72.75
31239;BME280;17871;31.584;74.450;2023-03-04T02:47:29;99441.31;;;20.60;72.24
31239;BME280;17871;31.584;74.450;2023-03-04T02:49:59;99446.41;;;20.68;72.44
31239;BME280;17871;31.584;74.450;2023-03-04T02:52:28;99449.66;;;20.79;72.01
31239;BME280;17871;31.584;74.450;2023-03-04T02:54:58;99446.25;;;20.76;72.06
31239;BME280;17871;31.584;74.450;2023-03-04T02:57:27;99449.59;;;20.84;72.50
31239;BME280;17871;31.584;74.450;2023-03-04T02:59:56;99459.00;;;20.91;71.84
31239;BME280;17871;31.584;74.450;2023-03-04T03:02:27;99464.44;;;20.76;72.38
31239;BME280;17871;31.584;74.450;2023-03-04T03:04:56;99474.78;;;20.79;72.58
31239;BME280;17871;31.584;74.450;2023-03-04T03:07:26;99474.53;;;20.94;71.75
31239;BME280;17871;31.584;74.450;2023-03-04T03:09:56;99476.84;;;21.09;71.18
31239;BME280;17871;31.584;74.450;2023-03-04T03:12:25;99472.66;;;21.02;71.64
31239;BME280;17871;31.584;74.450;2023-03-04T03:14:55;99476.09;;;21.02;71.41
31239;BME280;17871;31.584;74.450;2023-03-04T03:17:24;99481.38;;;20.98;71.35
31239;BME280;17871;31.584;74.450;2023-03-04T03:19:54;99481.09;;;21.16;70.55
31239;BME280;17871;31.584;74.450;2023-03-04T03:22:23;99488.91;;;21.16;70.58
31239;BME280;17871;31.584;74.450;2023-03-04T03:24:53;99479.06;;;21.33;69.69
31239;BME280;17871;31.584;74.450;2023-03-04T03:27:22;99482.22;;;21.47;69.14
31239;BME280;17871;31.584;74.450;2023-03-04T03:29:52;99487.28;;;21.56;68.34
31239;BME280;17871;31.584;74.450;2023-03-04T03:32:21;99496.44;;;21.74;68.24
31239;BME280;17871;31.584;74.450;2023-03-04T03:34:50;99506.09;;;21.67;68.33
31239;BME280;17871;31.584;74.450;2023-03-04T03:37:19;99498.16;;;21.77;67.77
31239;BME280;17871;31.584;74.450;2023-03-04T03:39:49;99507.56;;;21.82;67.13
31239;BME280;17871;31.584;74.450;2023-03-04T03:42:18;99515.94;;;21.98;66.44
31239;BME280;17871;31.584;74.450;2023-03-04T03:44:48;99506.38;;;21.98;65.73
31239;BME280;17871;31.584;74.450;2023-03-04T03:47:17;99494.91;;;22.07;64.91
31239;BME280;17871;31.584;74.450;2023-03-04T03:49:46;99500.31;;;21.98;64.15
31239;BME280;17871;31.584;74.450;2023-03-04T03:52:15;99508.22;;;22.33;63.18
31239;BME280;17871;31.584;74.450;2023-03-04T03:54:44;99497.56;;;22.44;62.85
31239;BME280;17871;31.584;74.450;2023-03-04T03:57:13;99502.94;;;22.36;62.92
31239;BME280;17871;31.584;74.450;2023-03-04T03:59:42;99501.31;;;22.31;62.38
31239;BME280;17871;31.584;74.450;2023-03-04T04:02:10;99511.66;;;22.73;61.99
31239;BME280;17871;31.584;74.450;2023-03-04T04:04:40;99510.91;;;22.68;61.73
31239;BME280;17871;31.584;74.450;2023-03-04T04:07:08;99511.25;;;22.89;59.84
31239;BME280;17871;31.584;74.450;2023-03-04T04:09:37;99514.94;;;22.82;59.53
31239;BME280;17871;31.584;74.450;2023-03-04T04:12:06;99511.25;;;22.90;58.81
31239;BME280;17871;31.584;74.450;2023-03-04T04:14:35;99515.56;;;22.91;58.26
31239;BME280;17871;31.584;74.450;2023-03-04T04:17:04;99515.59;;;23.23;58.55
31239;BME280;17871;31.584;74.450;2023-03-04T04:19:33;99520.41;;;23.40;58.47
31239;BME280;17871;31.584;74.450;2023-03-04T04:22:02;99529.53;;;23.56;58.00
31239;BME280;17871;31.584;74.450;2023-03-04T04:24:31;99537.31;;;23.58;56.90
31239;BME280;17871;31.584;74.450;2023-03-04T04:27:00;99530.03;;;23.69;56.76
31239;BME280;17871;31.584;74.450;2023-03-04T04:29:29;99530.47;;;23.85;56.10
31239;BME280;17871;31.584;74.450;2023-03-04T04:31:58;99534.88;;;23.84;56.13
31239;BME280;17871;31.584;74.450;2023-03-04T04:34:27;99539.22;;;23.84;55.24
31239;BME280;17871;31.584;74.450;2023-03-04T04:36:56;99552.03;;;23.91;55.13
31239;BME280;17871;31.584;74.450;2023-03-04T04:39:25;99549.78;;;24.10;55.06
31239;BME280;17871;31.584;74.450;2023-03-04T04:41:54;99547.53;;;24.27;54.66
31239;BME280;17871;31.584;74.450;2023-03-04T04:44:23;99556.59;;;24.15;53.78
31239;BME280;17871;31.584;74.450;2023-03-04T04:46:52;99560.78;;;24.21;53.19
31239;BME280;17871;31.584;74.450;2023-03-04T04:49:21;99558.72;;;24.32;52.27
31239;BME280;17871;31.584;74.450;2023-03-04T04:51:49;99567.63;;;24.25;51.88
31239;BME280;17871;31.584;74.450;2023-03-04T04:54:18;99562.28;;;24.57;52.08
31239;BME280;17871;31.584;74.450;2023-03-04T04:56:47;99563.31;;;24.53;52.64
31239;BME280;17871;31.584;74.450;2023-03-04T04:59:16;99560.50;;;24.59;53.18
31239;BME280;17871;31.584;74.450;2023-03-04T05:01:45;99571.94;;;24.55;52.65
31239;BME280;17871;31.584;74.450;2023-03-04T05:04:14;99569.81;;;24.40;52.57
31239;BME280;17871;31.584;74.450;2023-03-04T05:06:43;99573.38;;;24.65;52.12
31239;BME280;17871;31.584;74.450;2023-03-04T05:09:12;99563.28;;;24.81;51.53
31239;BME280;17871;31.584;74.450;2023-03-04T05:11:41;99571.66;;;24.64;52.08
31239;BME280;17871;31.584;74.450;2023-03-04T05:14:10;99559.28;;;24.99;51.71
31239;BME280;17871;31.584;74.450;2023-03-04T05:16:38;99566.63;;;24.58;54.03
31239;BME280;17871;31.584;74.450;2023-03-04T05:19:07;99560.16;;;24.98;52.82
31239;BME280;17871;31.584;74.450;2023-03-04T05:21:37;99557.13;;;25.10;52.96
31239;BME280;17871;31.584;74.450;2023-03-04T05:24:07;99549.34;;;25.35;53.13
31239;BME280;17871;31.584;74.450;2023-03-04T05:26:36;99551.63;;;24.93;52.27
31239;BME280;17871;31.584;74.450;2023-03-04T05:29:05;99551.53;;;24.96;53.49
31239;BME280;17871;31.584;74.450;2023-03-04T05:31:34;99556.28;;;25.36;53.44
31239;BME280;17871;31.584;74.450;2023-03-04T05:34:02;99553.75;;;25.59;52.67
31239;BME280;17871;31.584;74.450;2023-03-04T05:36:31;99556.97;;;25.67;51.74
31239;BME280;17871;31.584;74.450;2023-03-04T05:39:00;99545.63;;;25.66;52.51
31239;BME280;17871;31.584;74.450;2023-03-04T05:41:29;99544.28;;;25.79;51.97
31239;BME280;17871;31.584;74.450;2023-03-04T05:43:58;99535.50;;;25.80;51.53
31239;BME280;17871;31.584;74.450;2023-03-04T05:46:27;99528.75;;;25.98;51.73
31239;BME280;17871;31.584;74.450;2023-03-04T05:48:59;99524.22;;;25.78;51.04
31239;BME280;17871;31.584;74.450;2023-03-04T05:51:28;99523.22;;;25.83;51.29
31239;BME280;17871;31.584;74.450;2023-03-04T05:53:57;99519.31;;;25.94;50.92
31239;BME280;17871;31.584;74.450;2023-03-04T05:56:26;99531.88;;;25.85;50.61
31239;BME280;17871;31.584;74.450;2023-03-04T05:58:57;99520.69;;;25.79;47.14
31239;BME280;17871;31.584;74.450;2023-03-04T06:01:26;99522.59;;;25.99;46.20
31239;BME280;17871;31.584;74.450;2023-03-04T06:03:55;99521.72;;;26.23;47.46
31239;BME280;17871;31.584;74.450;2023-03-04T06:06:24;99520.94;;;26.43;48.59
31239;BME280;17871;31.584;74.450;2023-03-04T06:08:53;99524.09;;;26.29;48.52
31239;BME280;17871;31.584;74.450;2023-03-04T06:11:22;99514.78;;;26.44;47.92
31239;BME280;17871;31.584;74.450;2023-03-04T06:13:51;99510.06;;;26.52;49.52
31239;BME280;17871;31.584;74.450;2023-03-04T06:16:20;99507.56;;;26.49;50.34
31239;BME280;17871;31.584;74.450;2023-03-04T06:18:49;99505.94;;;26.47;49.21
31239;BME280;17871;31.584;74.450;2023-03-04T06:21:18;99503.34;;;26.23;50.31
31239;BME280;17871;31.584;74.450;2023-03-04T06:23:47;99502.47;;;26.46;49.62
31239;BME280;17871;31.584;74.450;2023-03-04T06:26:16;99488.19;;;26.53;49.77
31239;BME280;17871;31.584;74.450;2023-03-04T06:28:45;99490.63;;;26.79;50.40
31239;BME280;17871;31.584;74.450;2023-03-04T06:31:14;99482.88;;;26.76;49.18
31239;BME280;17871;31.584;74.450;2023-03-04T06:33:43;99476.94;;;26.71;50.23
31239;BME280;17871;31.584;74.450;2023-03-04T06:36:13;99475.56;;;26.85;50.93
31239;BME280;17871;31.584;74.450;2023-03-04T06:38:42;99474.06;;;26.77;47.38
31239;BME280;17871;31.584;74.450;2023-03-04T06:41:12;99472.25;;;26.79;47.40
31239;BME280;17871;31.584;74.450;2023-03-04T06:43:41;99468.31;;;26.69;49.04
31239;BME280;17871;31.584;74.450;2023-03-04T06:46:10;99460.75;;;26.84;49.41
31239;BME280;17871;31.584;74.450;2023-03-04T06:48:39;99461.53;;;26.86;47.90
31239;BME280;17871;31.584;74.450;2023-03-04T06:51:09;99450.59;;;26.96;47.03
31239;BME280;17871;31.584;74.450;2023-03-04T06:53:38;99457.47;;;26.57;46.24
31239;BME280;17871;31.584;74.450;2023-03-04T06:56:09;99440.94;;;26.75;47.15
31239;BME280;17871;31.584;74.450;2023-03-04T06:58:38;99433.44;;;26.88;48.88
31239;BME280;17871;31.584;74.450;2023-03-04T07:01:12;99433.31;;;27.11;48.53
31239;BME280;17871;31.584;74.450;2023-03-04T07:03:42;99432.09;;;26.57;48.63
31239;BME280;17871;31.584;74.450;2023-03-04T07:06:12;99427.34;;;27.07;48.85
31239;BME280;17871;31.584;74.450;2023-03-04T07:08:42;99421.28;;;27.07;48.46
31239;BME280;17871;31.584;74.450;2023-03-04T07:11:11;99418.28;;;27.14;47.98
31239;BME280;17871;31.584;74.450;2023-03-04T07:13:41;99411.75;;;27.04;47.96
31239;BME280;17871;31.584;74.450;2023-03-04T07:16:13;99409.38;;;27.18;46.20
31239;BME280;17871;31.584;74.450;2023-03-04T07:18:43;99409.56;;;26.73;46.13
31239;BME280;17871;31.584;74.450;2023-03-04T07:21:13;99406.44;;;26.86;45.66
31239;BME280;17871;31.584;74.450;2023-03-04T07:23:42;99413.03;;;27.14;44.61
31239;BME280;17871;31.584;74.450;2023-03-04T07:26:11;99394.69;;;27.53;44.93
31239;BME280;17871;31.584;74.450;2023-03-04T07:28:40;99390.50;;;27.87;44.82
31239;BME280;17871;31.584;74.450;2023-03-04T07:31:31;99384.88;;;27.94;44.50
31239;BME280;17871;31.584;74.450;2023-03-04T07:34:03;99381.25;;;27.97;44.02
31239;BME280;17871;31.584;74.450;2023-03-04T07:36:36;99373.78;;;27.52;45.10
31239;BME280;17871;31.584;74.450;2023-03-04T07:39:06;99361.75;;;27.83;44.57
31239;BME280;17871;31.584;74.450;2023-03-04T07:41:35;99359.75;;;28.07;45.04
31239;BME280;17871;31.584;74.450;2023-03-04T07:44:06;99358.81;;;27.90;45.50
31239;BME280;17871;31.584;74.450;2023-03-04T07:46:38;99350.94;;;27.90;45.16
31239;BME280;17871;31.584;74.450;2023-03-04T07:49:07;99346.28;;;27.77;45.52
31239;BME280;17871;31.584;74.450;2023-03-04T07:51:37;99349.78;;;28.14;44.49
31239;BME280;17871;31.584;74.450;2023-03-04T07:54:06;99331.72;;;27.89;44.23
31239;BME280;17871;31.584;74.450;2023-03-04T07:56:35;99335.00;;;27.75;44.28
31239;BME280;17871;31.584;74.450;2023-03-04T07:59:04;99330.22;;;27.83;44.17
31239;BME280;17871;31.584;74.450;2023-03-04T08:01:35;99314.22;;;28.07;44.10
31239;BME280;17871;31.584;74.450;2023-03-04T08:04:06;99317.19;;;28.18;43.85
31239;BME280;17871;31.584;74.450;2023-03-04T08:06:35;99310.84;;;28.22;43.21
31239;BME280;17871;31.584;74.450;2023-03-04T08:09:06;99308.13;;;28.23;43.56
31239;BME280;17871;31.584;74.450;2023-03-04T08:11:36;99297.53;;;28.08;44.25
31239;BME280;17871;31.584;74.450;2023-03-04T08:14:06;99303.88;;;28.21;44.03
31239;BME280;17871;31.584;74.450;2023-03-04T08:16:37;99295.81;;;28.07;44.07
31239;BME280;17871;31.584;74.450;2023-03-04T08:19:06;99288.53;;;27.95;44.02
31239;BME280;17871;31.584;74.450;2023-03-04T08:21:35;99285.53;;;28.19;44.75
31239;BME280;17871;31.584;74.450;2023-03-04T08:24:04;99287.00;;;28.42;45.00
31239;BME280;17871;31.584;74.450;2023-03-04T08:26:44;99286.56;;;28.51;44.49
31239;BME280;17871;31.584;74.450;2023-03-04T08:29:19;99274.13;;;28.38;43.82
31239;BME280;17871;31.584;74.450;2023-03-04T08:31:49;99269.53;;;28.07;44.11
31239;BME280;17871;31.584;74.450;2023-03-04T08:34:23;99262.63;;;28.04;43.64
31239;BME280;17871;31.584;74.450;2023-03-04T08:36:53;99267.41;;;27.96;43.98
31239;BME280;17871;31.584;74.450;2023-03-04T08:39:21;99261.81;;;28.21;42.87
31239;BME280;17871;31.584;74.450;2023-03-04T08:41:50;99250.84;;;27.77;44.41
31239;BME280;17871;31.584;74.450;2023-03-04T08:44:18;99251.47;;;28.18;43.90
31239;BME280;17871;31.584;74.450;2023-03-04T08:46:47;99246.16;;;28.01;43.81
31239;BME280;17871;31.584;74.450;2023-03-04T08:49:15;99243.25;;;28.07;43.79
31239;BME280;17871;31.584;74.450;2023-03-04T08:51:44;99229.31;;;28.39;43.87
31239;BME280;17871;31.584;74.450;2023-03-04T08:54:12;99232.44;;;28.30;43.08
31239;BME280;17871;31.584;74.450;2023-03-04T08:56:41;99229.03;;;28.45;43.56
31239;BME280;17871;31.584;74.450;2023-03-04T08:59:09;99232.59;;;28.10;42.64
31239;BME280;17871;31.584;74.450;2023-03-04T09:01:38;99227.88;;;28.16;42.32
31239;BME280;17871;31.584;74.450;2023-03-04T09:04:06;99214.53;;;28.54;42.79
31239;BME280;17871;31.584;74.450;2023-03-04T09:06:35;99214.19;;;28.60;42.62
31239;BME280;17871;31.584;74.450;2023-03-04T09:09:03;99213.06;;;28.48;42.84
31239;BME280;17871;31.584;74.450;2023-03-04T09:11:32;99207.63;;;28.68;42.02
31239;BME280;17871;31.584;74.450;2023-03-04T09:14:00;99204.34;;;28.80;42.60
31239;BME280;17871;31.584;74.450;2023-03-04T09:16:29;99206.47;;;28.07;43.22
31239;BME280;17871;31.584;74.450;2023-03-04T09:18:58;99198.72;;;28.38;42.85
31239;BME280;17871;31.584;74.450;2023-03-04T09:21:27;99207.31;;;28.24;43.16
31239;BME280;17871;31.584;74.450;2023-03-04T09:23:55;99185.88;;;28.32;42.74
31239;BME280;17871;31.584;74.450;2023-03-04T09:26:25;99191.69;;;28.39;43.33
31239;BME280;17871;31.584;74.450;2023-03-04T09:28:57;99182.78;;;28.24;43.79
31239;BME280;17871;31.584;74.450;2023-03-04T09:31:26;99177.94;;;28.49;43.25
31239;BME280;17871;31.584;74.450;2023-03-04T09:33:56;99175.38;;;28.32;43.61
31239;BME280;17871;31.584;74.450;2023-03-04T09:36:25;99168.56;;;28.28;43.69
31239;BME280;17871;31.584;74.450;2023-03-04T09:38:53;99168.75;;;28.41;43.57
31239;BME280;17871;31.584;74.450;2023-03-04T09:41:25;99154.50;;;27.95;44.84
31239;BME280;17871;31.584;74.450;2023-03-04T09:43:59;99161.59;;;27.93;45.23
31239;BME280;17871;31.584;74.450;2023-03-04T09:46:33;99151.72;;;27.98;45.60
31239;BME280;17871;31.584;74.450;2023-03-04T09:49:04;99148.88;;;28.02;45.17
31239;BME280;17871;31.584;74.450;2023-03-04T09:54:17;99144.16;;;27.74;45.95
31239;BME280;17871;31.584;74.450;2023-03-04T09:56:50;99141.09;;;27.99;45.67
31239;BME280;17871;31.584;74.450;2023-03-04T09:59:24;99132.56;;;27.96;45.41
31239;BME280;17871;31.584;74.450;2023-03-04T10:01:55;99122.66;;;28.18;45.03
31239;BME280;17871;31.584;74.450;2023-03-04T10:04:28;99115.63;;;28.18;45.13
31239;BME280;17871;31.584;74.450;2023-03-04T10:06:57;99113.75;;;28.03;45.96
31239;BME280;17871;31.584;74.450;2023-03-04T10:09:31;99119.34;;;28.14;46.58
31239;BME280;17871;31.584;74.450;2023-03-04T10:12:09;99104.59;;;28.12;45.63
31239;BME280;17871;31.584;74.450;2023-03-04T10:14:42;99104.66;;;27.93;46.36
31239;BME280;17871;31.584;74.450;2023-03-04T10:17:18;99109.16;;;28.08;45.94
31239;BME280;17871;31.584;74.450;2023-03-04T10:20:00;99106.09;;;28.16;46.18
31239;BME280;17871;31.584;74.450;2023-03-04T10:22:32;99097.13;;;28.20;46.15
31239;BME280;17871;31.584;74.450;2023-03-04T10:27:54;99095.84;;;28.11;46.38
31239;BME280;17871;31.584;74.450;2023-03-04T10:32:58;99090.81;;;28.07;46.29
31239;BME280;17871;31.584;74.450;2023-03-04T10:35:30;99086.25;;;28.10;45.83
31239;BME280;17871;31.584;74.450;2023-03-04T10:38:01;99085.69;;;28.04;46.21
31239;BME280;17871;31.584;74.450;2023-03-04T10:40:35;99086.94;;;27.97;46.21
31239;BME280;17871;31.584;74.450;2023-03-04T10:43:04;99090.75;;;27.74;45.47
31239;BME280;17871;31.584;74.450;2023-03-04T10:45:38;99078.13;;;27.98;45.28
31239;BME280;17871;31.584;74.450;2023-03-04T10:48:15;99086.03;;;27.80;45.15
31239;BME280;17871;31.584;74.450;2023-03-04T10:50:44;99091.75;;;27.89;45.34
31239;BME280;17871;31.584;74.450;2023-03-04T10:53:24;99091.13;;;28.01;45.46
31239;BME280;17871;31.584;74.450;2023-03-04T10:55:55;99085.28;;;27.96;45.26
31239;BME280;17871;31.584;74.450;2023-03-04T10:58:23;99081.50;;;27.67;45.61
31239;BME280;17871;31.584;74.450;2023-03-04T11:01:03;99088.34;;;27.87;46.02
31239;BME280;17871;31.584;74.450;2023-03-04T11:03:34;99087.19;;;27.92;45.79
31239;BME280;17871;31.584;74.450;2023-03-04T11:06:08;99080.34;;;27.72;45.36
31239;BME280;17871;31.584;74.450;2023-03-04T11:08:38;99080.41;;;27.88;45.21
31239;BME280;17871;31.584;74.450;2023-03-04T11:14:15;99077.19;;;27.66;45.50
31239;BME280;17871;31.584;74.450;2023-03-04T11:19:38;99085.97;;;27.82;45.07
31239;BME280;17871;31.584;74.450;2023-03-04T11:22:11;99075.84;;;27.92;45.39
31239;BME280;17871;31.584;74.450;2023-03-04T11:24:41;99080.56;;;27.85;45.68
31239;BME280;17871;31.584;74.450;2023-03-04T11:27:17;99086.75;;;27.67;45.22
31239;BME280;17871;31.584;74.450;2023-03-04T11:29:55;99081.72;;;27.79;44.94
31239;BME280;17871;31.584;74.450;2023-03-04T11:32:30;99081.88;;;27.76;45.46
31239;BME280;17871;31.584;74.450;2023-03-04T11:38:04;99081.34;;;27.70;44.96
31239;BME280;17871;31.584;74.450;2023-03-04T11:48:36;99082.94;;;27.38;44.88
31239;BME280;17871;31.584;74.450;2023-03-04T11:51:20;99086.00;;;27.48;44.91
31239;BME280;17871;31.584;74.450;2023-03-04T11:59:26;99085.56;;;27.38;43.23
31239;BME280;17871;31.584;74.450;2023-03-04T12:02:16;99096.94;;;27.39;44.00
31239;BME280;17871;31.584;74.450;2023-03-04T12:04:54;99089.25;;;27.53;43.46
31239;BME280;17871;31.584;74.450;2023-03-04T12:13:00;99104.72;;;27.40;43.81
31239;BME280;17871;31.584;74.450;2023-03-04T12:23:51;99106.84;;;27.15;43.62
31239;BME280;17871;31.584;74.450;2023-03-04T12:39:37;99132.06;;;26.81;50.05
31239;BME280;17871;31.584;74.450;2023-03-04T12:42:18;99133.88;;;26.79;50.92
31239;BME280;17871;31.584;74.450;2023-03-04T12:44:55;99138.16;;;26.63;53.07
31239;BME280;17871;31.584;74.450;2023-03-04T12:47:28;99137.91;;;26.49;54.38
31239;BME280;17871;31.584;74.450;2023-03-04T12:55:29;99143.00;;;26.34;56.29
31239;BME280;17871;31.584;74.450;2023-03-04T12:58:02;99149.56;;;26.23;56.75
31239;BME280;17871;31.584;74.450;2023-03-04T13:05:55;99159.84;;;26.08;57.76
31239;BME280;17871;31.584;74.450;2023-03-04T13:11:02;99159.50;;;25.95;58.68
31239;BME280;17871;31.584;74.450;2023-03-04T13:16:26;99161.78;;;25.83;60.03
31239;BME280;17871;31.584;74.450;2023-03-04T13:18:51;99172.47;;;25.78;60.23
31239;BME280;17871;31.584;74.450;2023-03-04T13:23:49;99177.69;;;25.58;60.92
31239;BME280;17871;31.584;74.450;2023-03-04T13:26:22;99176.84;;;25.57;61.38
31239;BME280;17871;31.584;74.450;2023-03-04T13:34:49;99188.69;;;25.44;61.62
31239;BME280;17871;31.584;74.450;2023-03-04T13:37:35;99193.34;;;25.36;61.52
31239;BME280;17871;31.584;74.450;2023-03-04T13:42:50;99191.81;;;25.32;61.41
31239;BME280;17871;31.584;74.450;2023-03-04T13:45:32;99193.69;;;25.28;61.55
31239;BME280;17871;31.584;74.450;2023-03-04T13:48:03;99200.00;;;25.23;61.64
31239;BME280;17871;31.584;74.450;2023-03-04T13:50:37;99197.56;;;25.18;61.30
31239;BME280;17871;31.584;74.450;2023-03-04T13:56:04;99204.72;;;25.13;62.21
31239;BME280;17871;31.584;74.450;2023-03-04T13:58:35;99204.13;;;25.07;62.15
31239;BME280;17871;31.584;74.450;2023-03-04T14:01:05;99210.28;;;25.06;62.18
31239;BME280;17871;31.584;74.450;2023-03-04T14:03:46;99212.16;;;25.02;62.61
31239;BME280;17871;31.584;74.450;2023-03-04T14:08:44;99218.56;;;24.94;62.58
31239;BME280;17871;31.584;74.450;2023-03-04T14:11:14;99219.53;;;24.91;62.67
31239;BME280;17871;31.584;74.450;2023-03-04T14:13:43;99221.41;;;24.88;62.68
31239;BME280;17871;31.584;74.450;2023-03-04T14:16:12;99233.75;;;24.84;62.80
31239;BME280;17871;31.584;74.450;2023-03-04T14:18:56;99236.53;;;24.79;62.98
31239;BME280;17871;31.584;74.450;2023-03-04T14:21:25;99236.53;;;24.79;62.87
31239;BME280;17871;31.584;74.450;2023-03-04T14:24:05;99249.69;;;24.76;63.17
31239;BME280;17871;31.584;74.450;2023-03-04T14:26:34;99246.25;;;24.76;63.52
31239;BME280;17871;31.584;74.450;2023-03-04T14:29:17;99242.06;;;24.70;63.76
31239;BME280;17871;31.584;74.450;2023-03-04T14:31:46;99252.53;;;24.70;63.59
31239;BME280;17871;31.584;74.450;2023-03-04T14:34:23;99254.50;;;24.64;63.98
31239;BME280;17871;31.584;74.450;2023-03-04T14:36:52;99252.84;;;24.61;64.23
31239;BME280;17871;31.584;74.450;2023-03-04T14:39:21;99257.22;;;24.61;64.04
31239;BME280;17871;31.584;74.450;2023-03-04T14:41:51;99263.44;;;24.58;64.02